ADDS METAR Data INFO
IDs: Format: Raw Decoded Include TAF

Data at: 0922 UTC 13 Dec 2017

PFSH 120456Z AUTO 03009KT 8SM BKN030 BKN035 OVC044 M04/M05 A2940 RMK AO2 SLP957 T10441050 PWINO FZRANO
PFSH 120356Z AUTO 03009KT 8SM FEW024 OVC034 M04/M05 A2938 RMK AO2 SLP950 T10441050 PWINO FZRANO
PFSH 120342Z AUTO 03009KT 7SM SCT024 OVC038 M04/M05 A2938 RMK AO2 PWINO FZRANO
PFSH 120334Z AUTO 03009KT 8SM BKN024 OVC040 M04/M05 A2937 RMK AO2 PWINO FZRANO
PFSH 120319Z AUTO 02010KT 4SM BR SCT026 BKN035 OVC042 M04/M05 A2937 RMK AO2 PWINO FZRANO
PFSH 120311Z AUTO 03010KT 2 1/2SM BR SCT026 BKN035 OVC042 M04/M05 A2936 RMK AO2 PWINO FZRANO
PFSH 120256Z AUTO 03010KT 2 1/2SM BR BKN024 OVC031 M04/M05 A2936 RMK AO2 SLP942 T10441050 51025 PWINO FZRANO
PFSH 120239Z AUTO 03010KT 2 1/2SM BR SCT017 BKN022 OVC029 M04/M05 A2935 RMK AO2 PWINO FZRANO
PFSH 120231Z AUTO 03010KT 1 3/4SM BR OVC019 M04/M05 A2935 RMK AO2 PWINO FZRANO
PFSH 120205Z AUTO 03010KT 2 1/2SM BR SCT017 BKN024 OVC042 M04/M05 A2934 RMK AO2 PWINO FZRANO $
PFSH 120156Z AUTO 02009KT 6SM BR FEW020 BKN030 OVC042 M04/M05 A2934 RMK AO2 SLP935 T10441050 PWINO FZRANO $
PFSH 120148Z AUTO 02010KT 6SM BR FEW021 SCT028 OVC039 M04/M06 A2934 RMK AO2 PWINO FZRANO $
PFSH 120107Z AUTO 03013KT 4SM BR BKN028 BKN043 OVC055 M04/M06 A2932 RMK AO2 PWINO FZRANO $
PFSH 120056Z AUTO 03012KT 4SM BR BKN030 OVC060 M04/M06 A2932 RMK AO2 SLP927 T10441056 PWINO FZRANO $
PFSH 112356Z AUTO 02014KT 8SM BKN090 OVC110 M04/M06 A2929 RMK AO2 SLP917 T10441061 11044 21050 53019 PWINO FZRANO
PFSH 112256Z AUTO 02016KT 7SM FEW080 BKN120 M05/M06 A2927 RMK AO2 SLP911 T10501061 PWINO FZRANO
PFSH 112156Z AUTO 02021KT 6SM BR FEW085 OVC110 M04/M06 A2925 RMK AO2 SLP903 T10441056 PWINO FZRANO